Time;durP1;ratioP1;P1;durP2;ratioP2;P2;SDS_P1;SDS_P2;PMS_P1;PMS_P2;Temp;Humidity;BMP_temperature;BMP_pressure;BME280_temperature;BME280_humidity;BME280_pressure;Samples;Min_cycle;Max_cycle;Signal;HPM_P1;HPM_P2
2023/08/20 00:00:18;;;;;;;20.27;19.10;;;24.60;96.30;;;;;;4923782;28;20468;-85
2023/08/20 00:02:52;;;;;;;20.43;19.20;;;24.50;99.90;;;;;;4920408;29;20492;-86
2023/08/20 00:05:25;;;;;;;20.57;19.57;;;24.60;99.90;;;;;;4905349;29;20455;-87
2023/08/20 00:07:56;;;;;;;20.70;19.70;;;24.60;99.90;;;;;;4906979;29;20486;-87
2023/08/20 00:10:25;;;;;;;20.30;19.17;;;24.60;99.90;;;;;;4906510;29;21252;-86
2023/08/20 00:12:58;;;;;;;20.43;19.30;;;24.50;99.90;;;;;;4913067;29;20459;-86
2023/08/20 00:15:30;;;;;;;19.90;18.90;;;24.50;99.90;;;;;;4921568;29;20938;-87
2023/08/20 00:17:59;;;;;;;20.00;19.10;;;24.50;99.90;;;;;;4903151;29;20523;-87
2023/08/20 00:20:34;;;;;;;21.80;20.50;;;24.50;99.90;;;;;;4907407;29;20465;-87
2023/08/20 00:23:06;;;;;;;20.93;19.63;;;24.50;99.90;;;;;;4910585;29;20492;-86
2023/08/20 00:25:39;;;;;;;20.10;19.10;;;24.50;99.90;;;;;;4906419;29;20463;-86
2023/08/20 00:28:08;;;;;;;21.13;20.13;;;24.40;99.90;;;;;;4911319;29;20513;-87
2023/08/20 00:30:40;;;;;;;20.23;19.10;;;24.40;99.90;;;;;;4908086;29;20466;-86
2023/08/20 00:33:13;;;;;;;21.73;20.50;;;24.30;99.90;;;;;;4906113;29;21073;-86
2023/08/20 00:35:48;;;;;;;22.00;20.60;;;24.30;99.90;;;;;;4905849;29;20456;-86
2023/08/20 00:38:18;;;;;;;20.73;19.57;;;24.30;1.00;;;;;;4908936;29;20485;-89
2023/08/20 00:40:49;;;;;;;20.13;19.13;;;24.30;1.00;;;;;;4908159;29;20473;-87
2023/08/20 00:43:18;;;;;;;21.70;20.20;;;24.30;1.00;;;;;;4910455;29;20482;-86
2023/08/20 00:45:51;;;;;;;21.27;19.97;;;24.20;1.00;;;;;;4915636;28;20956;-86
2023/08/20 00:48:25;;;;;;;21.10;19.83;;;24.20;1.00;;;;;;4911443;29;20474;-86
2023/08/20 00:50:55;;;;;;;21.33;20.27;;;24.20;1.00;;;;;;4904606;29;20545;-85
2023/08/20 00:53:28;;;;;;;21.53;20.33;;;24.20;1.00;;;;;;4904528;29;21047;-86
2023/08/20 00:55:59;;;;;;;22.53;21.10;;;24.20;1.00;;;;;;4909109;29;22082;-86
2023/08/20 00:58:29;;;;;;;22.63;21.33;;;24.20;1.00;;;;;;4902963;29;20485;-87
2023/08/20 01:00:58;;;;;;;21.53;20.23;;;24.20;1.00;;;;;;4904920;29;20463;-86
2023/08/20 01:03:33;;;;;;;20.77;19.53;;;24.10;1.00;;;;;;4906290;29;20564;-89
2023/08/20 01:06:13;;;;;;;21.30;20.00;;;24.00;1.00;;;;;;4920899;29;20554;-86
2023/08/20 01:08:50;;;;;;;22.23;21.03;;;24.00;39.00;;;;;;4902407;29;20923;-88
2023/08/20 01:11:28;;;;;;;21.37;20.17;;;24.00;13.10;;;;;;4904486;29;20466;-87
2023/08/20 01:13:58;;;;;;;21.27;20.17;;;24.00;87.90;;;;;;4905160;29;20472;-86
2023/08/20 01:16:29;;;;;;;21.77;20.57;;;24.00;85.70;;;;;;4922098;29;20482;-86
2023/08/20 01:19:00;;;;;;;21.73;20.53;;;24.00;52.60;;;;;;4904744;29;20470;-86
2023/08/20 01:21:39;;;;;;;21.53;20.17;;;24.00;1.00;;;;;;4920270;29;20463;-86
2023/08/20 01:24:23;;;;;;;21.53;20.23;;;24.00;99.90;;;;;;4903550;29;20458;-86
2023/08/20 01:27:09;;;;;;;21.90;20.80;;;23.90;99.90;;;;;;4901995;29;20811;-88
2023/08/20 01:29:40;;;;;;;22.13;20.60;;;23.90;98.50;;;;;;4906288;29;20498;-85
2023/08/20 01:32:10;;;;;;;21.57;20.27;;;23.90;56.00;;;;;;4901856;29;20821;-88
2023/08/20 01:34:39;;;;;;;23.30;21.90;;;24.00;32.90;;;;;;4908808;29;20460;-88
2023/08/20 01:37:13;;;;;;;21.67;20.40;;;23.90;99.90;;;;;;4903585;29;20471;-86
2023/08/20 01:39:44;;;;;;;22.40;21.00;;;23.80;99.90;;;;;;4906213;29;20553;-86
2023/08/20 01:42:15;;;;;;;22.83;21.33;;;23.80;99.90;;;;;;4905098;29;20478;-87
2023/08/20 01:44:52;;;;;;;22.47;21.17;;;23.80;99.90;;;;;;4903242;29;20466;-86
2023/08/20 01:47:24;;;;;;;22.07;20.67;;;23.80;99.90;;;;;;4903265;29;20475;-86
2023/08/20 01:49:56;;;;;;;22.00;20.50;;;23.80;99.90;;;;;;4905389;29;20470;-87
2023/08/20 01:52:26;;;;;;;22.27;20.97;;;23.80;99.90;;;;;;4902790;29;20972;-86
2023/08/20 01:54:58;;;;;;;22.07;20.87;;;23.80;99.90;;;;;;4905175;29;20466;-85
2023/08/20 01:57:27;;;;;;;21.97;20.80;;;23.80;99.90;;;;;;4910412;29;20490;-86
2023/08/20 01:59:57;;;;;;;22.10;20.90;;;23.90;99.90;;;;;;4907742;29;20472;-87
2023/08/20 02:02:29;;;;;;;21.30;20.30;;;23.80;99.90;;;;;;4904070;29;20493;-86
2023/08/20 02:05:06;;;;;;;22.07;20.87;;;23.70;99.90;;;;;;4909846;29;20473;-86
2023/08/20 02:07:40;;;;;;;21.30;20.10;;;23.70;99.90;;;;;;4904307;29;20858;-84
2023/08/20 02:10:17;;;;;;;20.57;19.47;;;23.70;99.90;;;;;;4907953;29;20991;-85
2023/08/20 02:12:46;;;;;;;21.53;20.50;;;23.70;99.90;;;;;;4906492;29;20459;-86
2023/08/20 02:15:18;;;;;;;20.57;19.47;;;23.60;99.90;;;;;;4905867;29;21051;-85
2023/08/20 02:17:54;;;;;;;20.17;19.27;;;23.60;99.90;;;;;;4912197;29;20987;-86
2023/08/20 02:20:24;;;;;;;22.37;20.73;;;23.60;99.90;;;;;;4911261;29;20457;-86
2023/08/20 02:22:53;;;;;;;20.80;19.60;;;23.60;99.90;;;;;;4904219;29;20500;-86
2023/08/20 02:25:25;;;;;;;21.93;20.40;;;23.50;1.00;;;;;;4906146;29;20453;-86
2023/08/20 02:27:59;;;;;;;21.50;20.13;;;23.50;1.00;;;;;;4908787;29;20556;-85
2023/08/20 02:30:33;;;;;;;21.00;19.80;;;23.50;1.00;;;;;;4907578;29;20513;-86
2023/08/20 02:33:06;;;;;;;21.03;19.97;;;23.50;1.00;;;;;;4906130;29;20461;-86
2023/08/20 02:35:42;;;;;;;21.07;19.87;;;23.50;1.00;;;;;;4911086;29;20839;-86
2023/08/20 02:38:15;;;;;;;21.90;20.60;;;23.50;1.00;;;;;;4905644;29;20520;-85
2023/08/20 02:40:43;;;;;;;20.70;19.50;;;23.40;1.00;;;;;;4903085;29;20536;-85
2023/08/20 02:43:12;;;;;;;21.40;20.00;;;23.40;99.90;;;;;;4911743;29;20490;-85
2023/08/20 02:45:50;;;;;;;21.73;20.60;;;23.50;99.90;;;;;;4909140;29;20463;-86
2023/08/20 02:48:19;;;;;;;22.00;20.73;;;23.50;1.00;;;;;;4910813;29;20469;-86
2023/08/20 02:50:56;;;;;;;22.63;21.20;;;23.40;1.00;;;;;;4906620;29;20454;-85
2023/08/20 02:53:28;;;;;;;22.20;20.90;;;23.40;1.00;;;;;;4908236;29;20464;-86
2023/08/20 02:55:59;;;;;;;22.33;21.00;;;23.40;99.70;;;;;;4909558;29;20468;-86
2023/08/20 02:58:32;;;;;;;23.60;22.10;;;23.40;99.90;;;;;;4908243;29;20487;-86
2023/08/20 03:01:11;;;;;;;24.87;23.27;;;23.40;99.90;;;;;;4915133;29;20465;-86
2023/08/20 03:03:43;;;;;;;23.63;22.33;;;23.30;99.90;;;;;;4925363;29;20864;-87
2023/08/20 03:06:13;;;;;;;24.10;22.70;;;23.40;1.00;;;;;;4911493;29;20461;-86
2023/08/20 03:08:43;;;;;;;24.03;22.57;;;23.40;1.00;;;;;;4907458;29;20477;-88
2023/08/20 03:11:15;;;;;;;24.33;22.63;;;23.30;82.40;;;;;;4909665;29;20446;-86
2023/08/20 03:13:47;;;;;;;23.67;22.27;;;23.20;99.90;;;;;;4910219;29;20458;-85
2023/08/20 03:16:24;;;;;;;23.23;21.73;;;23.20;1.00;;;;;;4908292;29;20449;-86
2023/08/20 03:18:58;;;;;;;21.13;20.13;;;23.30;1.00;;;;;;4906871;29;20597;-87
2023/08/20 03:21:26;;;;;;;24.80;23.13;;;23.30;1.00;;;;;;4909127;29;20462;-87
2023/08/20 03:23:57;;;;;;;21.70;20.60;;;23.40;1.00;;;;;;4904445;29;21063;-87
2023/08/20 03:26:26;;;;;;;21.00;19.63;;;23.30;99.90;;;;;;4909130;29;20469;-86
2023/08/20 03:28:58;;;;;;;20.57;19.40;;;23.20;99.90;;;;;;4905205;29;20536;-85
2023/08/20 03:31:38;;;;;;;22.40;21.20;;;23.20;99.90;;;;;;4906630;29;20899;-87
2023/08/20 03:34:09;;;;;;;22.10;21.00;;;23.20;99.90;;;;;;4910638;29;20462;-86
2023/08/20 03:36:43;;;;;;;21.60;20.60;;;23.10;1.00;;;;;;4909255;29;20491;-86
2023/08/20 03:39:13;;;;;;;21.50;20.10;;;23.10;1.00;;;;;;4908035;29;20477;-86
2023/08/20 03:41:47;;;;;;;21.40;20.30;;;23.10;99.90;;;;;;4907578;29;20470;-85
2023/08/20 03:44:19;;;;;;;22.33;21.00;;;23.10;1.00;;;;;;4913954;29;21007;-86
2023/08/20 03:46:52;;;;;;;21.50;20.23;;;23.10;1.00;;;;;;4920171;29;21067;-85
2023/08/20 03:49:24;;;;;;;22.63;21.30;;;23.20;99.90;;;;;;4905237;29;20452;-86
2023/08/20 03:51:55;;;;;;;21.67;20.37;;;23.20;31.80;;;;;;4904643;29;21008;-86
2023/08/20 03:54:26;;;;;;;21.53;20.27;;;23.10;1.00;;;;;;4920923;29;20460;-86
2023/08/20 03:56:58;;;;;;;22.20;20.97;;;23.10;99.90;;;;;;4904455;29;20549;-86
2023/08/20 03:59:33;;;;;;;21.87;20.53;;;23.10;43.70;;;;;;4908054;29;20459;-85
2023/08/20 04:02:03;;;;;;;22.40;21.13;;;23.10;99.90;;;;;;4908336;29;20466;-85
2023/08/20 04:04:38;;;;;;;21.57;20.57;;;23.00;99.90;;;;;;4906846;29;20473;-85
2023/08/20 04:07:07;;;;;;;22.50;21.20;;;23.00;1.00;;;;;;4905392;29;20466;-88
2023/08/20 04:09:38;;;;;;;21.53;20.23;;;23.10;1.00;;;;;;4904855;29;21153;-88
2023/08/20 04:12:07;;;;;;;21.83;20.67;;;23.10;1.00;;;;;;4906967;29;21009;-85
2023/08/20 04:14:36;;;;;;;22.83;21.50;;;23.00;1.00;;;;;;4909443;29;20454;-85
2023/08/20 04:17:09;;;;;;;21.93;20.70;;;22.90;99.90;;;;;;4908569;29;20490;-86
2023/08/20 04:19:42;;;;;;;22.90;21.63;;;22.90;99.90;;;;;;4907506;29;20502;-85
2023/08/20 04:22:11;;;;;;;21.40;20.30;;;22.80;1.00;;;;;;4909347;29;20454;-87
2023/08/20 04:24:40;;;;;;;21.87;20.70;;;22.90;77.20;;;;;;4923607;29;20539;-86
2023/08/20 04:27:10;;;;;;;23.60;22.20;;;22.90;1.00;;;;;;4910237;29;20489;-85
2023/08/20 04:29:42;;;;;;;21.50;20.50;;;22.80;28.90;;;;;;4921954;29;20513;-85
2023/08/20 04:32:15;;;;;;;21.47;20.40;;;22.90;99.90;;;;;;4923604;29;20457;-86
2023/08/20 04:34:43;;;;;;;23.13;21.70;;;22.80;20.80;;;;;;4906635;29;21036;-85
2023/08/20 04:37:17;;;;;;;21.37;20.20;;;22.80;19.30;;;;;;4906322;29;20493;-85
2023/08/20 04:39:50;;;;;;;21.83;20.73;;;22.90;4.10;;;;;;4907335;29;20476;-85
2023/08/20 04:42:26;;;;;;;23.10;21.83;;;22.80;1.00;;;;;;4909420;29;20493;-85
2023/08/20 04:45:00;;;;;;;21.47;20.27;;;22.80;1.00;;;;;;4907937;29;20562;-85
2023/08/20 04:47:32;;;;;;;23.27;21.97;;;22.90;1.00;;;;;;4907417;29;20542;-86
2023/08/20 04:50:09;;;;;;;21.50;20.30;;;22.80;1.00;;;;;;4906689;29;20962;-86
2023/08/20 04:52:38;;;;;;;21.80;20.80;;;22.80;1.00;;;;;;4905846;29;20953;-86
2023/08/20 04:55:11;;;;;;;21.77;20.50;;;22.80;1.00;;;;;;4905900;29;20506;-90
2023/08/20 04:57:39;;;;;;;22.73;21.57;;;22.80;1.00;;;;;;4907715;29;20486;-86
2023/08/20 05:00:11;;;;;;;22.60;21.33;;;22.90;1.00;;;;;;4907623;29;20465;-85
2023/08/20 05:02:43;;;;;;;22.43;21.07;;;22.90;1.00;;;;;;4910034;29;20463;-87
2023/08/20 05:05:14;;;;;;;23.03;21.83;;;22.80;99.90;;;;;;4905766;29;21015;-84
2023/08/20 05:07:46;;;;;;;22.47;21.17;;;22.80;1.00;;;;;;4907450;29;20459;-86
2023/08/20 05:10:17;;;;;;;22.67;21.47;;;22.80;1.00;;;;;;4909771;29;20477;-86
2023/08/20 05:12:49;;;;;;;22.23;20.93;;;22.80;99.90;;;;;;4906439;29;20481;-86
2023/08/20 05:15:22;;;;;;;22.40;21.30;;;22.80;99.90;;;;;;4906459;29;20462;-88
2023/08/20 05:17:55;;;;;;;23.20;21.57;;;22.80;23.20;;;;;;4907859;29;21034;-86
2023/08/20 05:20:33;;;;;;;21.63;20.53;;;22.80;99.90;;;;;;4907075;29;20458;-86
2023/08/20 05:23:05;;;;;;;22.50;21.30;;;22.90;70.20;;;;;;4923685;29;21177;-86
2023/08/20 05:25:34;;;;;;;21.50;20.40;;;23.00;1.00;;;;;;4907731;29;20514;-85
2023/08/20 05:28:07;;;;;;;22.10;21.00;;;23.00;99.90;;;;;;4906317;29;20523;-86
2023/08/20 05:30:39;;;;;;;22.30;21.10;;;23.00;99.90;;;;;;4906093;29;20451;-85
2023/08/20 05:33:11;;;;;;;22.30;21.00;;;23.00;1.00;;;;;;4905793;29;20482;-86
2023/08/20 05:35:45;;;;;;;22.50;21.17;;;23.10;1.00;;;;;;4901326;29;20451;-86
2023/08/20 05:38:14;;;;;;;23.00;21.70;;;23.10;42.10;;;;;;4907490;29;20474;-87
2023/08/20 05:40:46;;;;;;;23.40;21.97;;;23.10;1.00;;;;;;4908108;29;20469;-85
2023/08/20 05:43:21;;;;;;;22.23;21.03;;;23.10;99.90;;;;;;4906537;29;20685;-86
2023/08/20 05:45:51;;;;;;;23.43;22.00;;;23.20;99.90;;;;;;4909008;29;20482;-85
2023/08/20 05:48:28;;;;;;;23.23;21.83;;;23.20;99.90;;;;;;4910081;29;20489;-86
2023/08/20 05:51:07;;;;;;;23.00;21.63;;;23.20;99.90;;;;;;4904599;29;20513;-85
2023/08/20 05:53:38;;;;;;;22.87;21.47;;;23.20;99.90;;;;;;4906061;29;20458;-85
2023/08/20 05:56:10;;;;;;;22.97;21.67;;;23.30;99.90;;;;;;4906576;29;20458;-86
2023/08/20 05:58:38;;;;;;;22.97;21.77;;;23.40;99.90;;;;;;4906342;29;20872;-86
2023/08/20 06:01:12;;;;;;;23.17;21.57;;;23.40;1.00;;;;;;4924932;29;20658;-86
2023/08/20 06:03:46;;;;;;;23.00;21.70;;;23.50;1.00;;;;;;4906740;29;20530;-85
2023/08/20 06:06:19;;;;;;;23.60;22.23;;;23.60;99.90;;;;;;4903246;29;20462;-85
2023/08/20 06:08:51;;;;;;;24.23;22.60;;;23.70;99.90;;;;;;4906741;29;20478;-87
2023/08/20 06:11:39;;;;;;;22.20;21.03;;;23.80;7.00;;;;;;4904700;29;20463;-86
2023/08/20 06:14:14;;;;;;;22.57;21.20;;;24.00;1.00;;;;;;4919364;29;20453;-85
2023/08/20 06:16:45;;;;;;;23.67;22.20;;;24.20;99.90;;;;;;4904377;29;20952;-86
2023/08/20 06:19:18;;;;;;;23.33;21.90;;;24.40;99.90;;;;;;4904494;29;20461;-87
2023/08/20 06:21:49;;;;;;;22.53;21.33;;;24.40;99.90;;;;;;4902934;29;20493;-85
2023/08/20 06:24:20;;;;;;;22.63;21.50;;;24.40;99.90;;;;;;4905469;29;20447;-88
2023/08/20 06:26:52;;;;;;;23.70;22.23;;;24.50;1.00;;;;;;4904860;29;20457;-85
2023/08/20 06:29:21;;;;;;;23.93;22.43;;;24.60;1.00;;;;;;4903595;29;20467;-88
2023/08/20 06:31:52;;;;;;;24.03;22.53;;;24.60;99.90;;;;;;4904588;29;20462;-88
2023/08/20 06:34:29;;;;;;;23.87;22.33;;;24.60;99.90;;;;;;4903589;29;20466;-85
2023/08/20 06:37:00;;;;;;;23.33;21.77;;;24.60;99.90;;;;;;4904553;29;21072;-86
2023/08/20 06:39:31;;;;;;;23.40;22.20;;;24.70;99.90;;;;;;4902731;29;20473;-85
2023/08/20 06:42:00;;;;;;;23.80;22.40;;;24.90;99.90;;;;;;4909120;29;20469;-91
2023/08/20 06:44:35;;;;;;;23.60;22.20;;;25.10;99.90;;;;;;4907874;29;20443;-86
2023/08/20 06:47:03;;;;;;;23.27;21.87;;;25.30;1.00;;;;;;4903775;29;20469;-86
2023/08/20 06:49:37;;;;;;;23.07;21.77;;;25.40;99.90;;;;;;4900179;29;20454;-86
2023/08/20 06:52:09;;;;;;;23.00;21.60;;;25.60;99.90;;;;;;4902141;29;20892;-86
2023/08/20 06:54:38;;;;;;;23.70;22.10;;;25.70;99.90;;;;;;4903310;29;20461;-85
2023/08/20 06:57:11;;;;;;;23.23;21.90;;;26.00;99.90;;;;;;4904866;29;20545;-86
2023/08/20 06:59:42;;;;;;;22.87;21.53;;;26.00;1.00;;;;;;4902476;29;20461;-85
2023/08/20 07:02:11;;;;;;;23.73;22.43;;;26.00;1.00;;;;;;4901274;29;20474;-86
2023/08/20 07:04:49;;;;;;;23.70;22.10;;;26.10;1.00;;;;;;4905095;29;20462;-86
2023/08/20 07:07:24;;;;;;;23.83;22.60;;;26.10;1.00;;;;;;4904066;29;20594;-88
2023/08/20 07:09:57;;;;;;;24.10;22.70;;;26.20;1.00;;;;;;4902124;29;20451;-87
2023/08/20 07:12:30;;;;;;;24.13;22.80;;;26.30;1.00;;;;;;4901927;29;20545;-86
2023/08/20 07:14:59;;;;;;;23.60;22.40;;;26.40;1.00;;;;;;4902866;29;20457;-86
2023/08/20 07:17:30;;;;;;;23.27;21.93;;;26.50;99.90;;;;;;4901485;29;21023;-87
2023/08/20 07:20:03;;;;;;;25.07;23.57;;;26.50;1.00;;;;;;4903979;29;21201;-86
2023/08/20 07:22:31;;;;;;;23.93;22.53;;;26.50;99.90;;;;;;4906054;29;20493;-86
2023/08/20 07:25:01;;;;;;;23.10;21.90;;;26.50;1.00;;;;;;4915954;29;20470;-86
2023/08/20 07:27:32;;;;;;;23.50;22.10;;;26.60;1.00;;;;;;4906120;29;20489;-86
2023/08/20 07:30:05;;;;;;;22.93;21.73;;;26.70;1.00;;;;;;4907183;29;20457;-85
2023/08/20 07:32:36;;;;;;;22.47;21.27;;;26.70;1.00;;;;;;4907172;29;20522;-87
2023/08/20 07:35:15;;;;;;;23.80;22.50;;;26.70;1.00;;;;;;4906651;29;20584;-86
2023/08/20 07:37:43;;;;;;;23.23;22.03;;;26.80;99.90;;;;;;4909027;29;20478;-88
2023/08/20 07:40:17;;;;;;;22.87;21.53;;;26.70;99.90;;;;;;4907641;29;20467;-86
2023/08/20 07:42:45;;;;;;;22.73;21.53;;;26.70;1.00;;;;;;4909779;29;20503;-89
2023/08/20 07:45:16;;;;;;;21.77;20.77;;;26.70;99.90;;;;;;4905962;29;20886;-85
2023/08/20 07:47:45;;;;;;;24.67;22.90;;;26.80;99.90;;;;;;4907371;29;20984;-86
2023/08/20 07:50:15;;;;;;;23.50;22.20;;;26.80;99.90;;;;;;4912194;29;20590;-88
2023/08/20 07:52:49;;;;;;;22.07;20.90;;;26.90;99.90;;;;;;4906563;29;20505;-87
2023/08/20 07:55:26;;;;;;;23.73;21.97;;;26.90;99.90;;;;;;4911191;29;20454;-87
2023/08/20 07:57:58;;;;;;;23.20;22.00;;;27.00;99.90;;;;;;4907257;29;21063;-86
2023/08/20 08:00:29;;;;;;;24.10;22.20;;;27.00;1.00;;;;;;4912887;29;20580;-86
2023/08/20 08:02:58;;;;;;;22.63;21.37;;;27.10;1.00;;;;;;4909290;29;20667;-86
2023/08/20 08:05:31;;;;;;;22.67;21.30;;;27.10;99.90;;;;;;4907046;29;20474;-85
2023/08/20 08:08:06;;;;;;;23.07;21.67;;;27.20;99.90;;;;;;4909119;29;20490;-84
2023/08/20 08:10:37;;;;;;;23.07;21.67;;;27.10;99.90;;;;;;4910098;29;20476;-86
2023/08/20 08:13:05;;;;;;;22.33;21.13;;;27.10;99.90;;;;;;4905089;29;20801;-85
2023/08/20 08:15:41;;;;;;;22.57;21.37;;;27.10;99.90;;;;;;4911014;29;20517;-85
2023/08/20 08:18:15;;;;;;;22.20;21.07;;;27.20;99.90;;;;;;4903999;29;20486;-86
2023/08/20 08:20:54;;;;;;;22.43;21.13;;;27.20;99.90;;;;;;4914872;29;20451;-86
2023/08/20 08:23:27;;;;;;;20.37;19.27;;;27.20;99.90;;;;;;4921864;28;20490;-86
2023/08/20 08:25:58;;;;;;;23.53;22.03;;;27.30;99.90;;;;;;4907532;29;20466;-85
2023/08/20 08:28:30;;;;;;;23.47;22.27;;;27.40;99.90;;;;;;4905428;29;20576;-86
2023/08/20 08:31:03;;;;;;;23.77;22.47;;;27.40;99.90;;;;;;4905484;29;20819;-87
2023/08/20 08:33:38;;;;;;;22.03;20.90;;;27.40;99.90;;;;;;4907278;29;20494;-86
2023/08/20 08:36:08;;;;;;;22.03;20.90;;;27.40;99.90;;;;;;4910018;29;20666;-86
2023/08/20 08:38:39;;;;;;;21.73;20.60;;;27.50;99.90;;;;;;4906224;29;20494;-87
2023/08/20 08:41:13;;;;;;;21.80;20.40;;;27.60;99.90;;;;;;4905769;29;20488;-85
2023/08/20 08:43:49;;;;;;;21.30;20.10;;;27.60;99.90;;;;;;4902886;29;20519;-86
2023/08/20 08:46:21;;;;;;;22.73;21.53;;;27.70;96.50;;;;;;4903320;29;20493;-88
2023/08/20 08:48:54;;;;;;;22.00;20.60;;;27.70;92.70;;;;;;4918945;29;20502;-88
2023/08/20 08:51:26;;;;;;;23.07;21.70;;;27.70;35.20;;;;;;4907107;29;20457;-85
2023/08/20 08:53:55;;;;;;;22.23;20.73;;;27.70;31.10;;;;;;4906804;29;20471;-86
2023/08/20 08:56:26;;;;;;;21.97;20.87;;;27.80;80.40;;;;;;4903152;29;20553;-87
2023/08/20 08:58:55;;;;;;;20.77;19.53;;;27.80;93.50;;;;;;4905584;29;20534;-85
2023/08/20 09:01:26;;;;;;;21.20;20.20;;;27.90;29.30;;;;;;4905282;29;20501;-87
2023/08/20 09:04:05;;;;;;;21.90;20.60;;;28.00;2.50;;;;;;4908086;29;20469;-85
2023/08/20 09:06:49;;;;;;;21.83;20.63;;;28.00;1.00;;;;;;4906610;29;20493;-89
2023/08/20 09:09:22;;;;;;;21.73;20.67;;;28.00;1.00;;;;;;4906856;29;20968;-85
2023/08/20 09:11:54;;;;;;;22.03;20.83;;;28.10;1.00;;;;;;4903176;29;21043;-86
2023/08/20 09:14:23;;;;;;;21.50;20.50;;;28.10;1.00;;;;;;4917864;29;20473;-87
2023/08/20 09:17:07;;;;;;;21.30;20.10;;;28.10;1.00;;;;;;4904331;29;20447;-86
2023/08/20 09:19:37;;;;;;;21.57;20.57;;;28.20;1.00;;;;;;4902216;29;20992;-85
2023/08/20 09:22:10;;;;;;;21.80;20.70;;;28.20;1.00;;;;;;4904098;29;20469;-87
2023/08/20 09:24:43;;;;;;;22.23;21.23;;;28.30;1.00;;;;;;4900974;29;20473;-88
2023/08/20 09:27:15;;;;;;;22.23;21.13;;;28.20;1.00;;;;;;4903237;29;20517;-87
2023/08/20 09:29:47;;;;;;;22.70;21.30;;;28.30;1.00;;;;;;4902211;29;20489;-86
2023/08/20 09:32:16;;;;;;;22.47;21.13;;;28.40;1.00;;;;;;4904480;29;21033;-86
2023/08/20 09:34:49;;;;;;;20.90;19.90;;;28.40;1.00;;;;;;4907022;29;20500;-86
2023/08/20 09:37:22;;;;;;;21.70;20.67;;;28.50;1.00;;;;;;4905888;29;20477;-86
2023/08/20 09:39:54;;;;;;;20.60;19.60;;;28.40;1.00;;;;;;4904460;29;20462;-87
2023/08/20 09:42:28;;;;;;;21.80;20.50;;;28.50;1.00;;;;;;4903398;29;20450;-85
2023/08/20 09:44:57;;;;;;;21.33;20.33;;;28.60;1.00;;;;;;4904775;29;20461;-85
2023/08/20 09:47:36;;;;;;;20.97;19.90;;;28.70;1.00;;;;;;4905486;29;21158;-88
2023/08/20 09:50:11;;;;;;;20.93;19.93;;;28.70;1.00;;;;;;4908889;29;21086;-89
2023/08/20 09:52:47;;;;;;;21.17;20.17;;;28.70;1.00;;;;;;4907038;29;20489;-86
2023/08/20 09:55:25;;;;;;;20.70;19.47;;;28.80;1.00;;;;;;4905250;29;20458;-86
2023/08/20 09:57:54;;;;;;;20.83;19.83;;;28.80;1.00;;;;;;4903291;29;20484;-86
2023/08/20 10:00:36;;;;;;;20.60;19.60;;;28.80;1.00;;;;;;4906051;29;20500;-88
2023/08/20 10:03:07;;;;;;;20.63;19.53;;;28.80;99.90;;;;;;4904646;29;20463;-88
2023/08/20 10:05:38;;;;;;;20.73;19.67;;;28.80;99.90;;;;;;4907362;29;20458;-87
2023/08/20 10:08:16;;;;;;;20.73;19.80;;;28.90;1.00;;;;;;4906365;29;20537;-87
2023/08/20 10:10:51;;;;;;;20.93;19.90;;;29.00;99.90;;;;;;4905478;29;20551;-87
2023/08/20 10:13:20;;;;;;;20.90;19.90;;;29.00;99.90;;;;;;4906446;29;20461;-86
2023/08/20 10:15:49;;;;;;;20.97;19.87;;;29.10;99.90;;;;;;4902565;29;20538;-86
2023/08/20 10:18:21;;;;;;;20.70;19.70;;;29.20;99.90;;;;;;4904313;29;20978;-88
2023/08/20 10:20:56;;;;;;;21.23;20.10;;;29.20;99.90;;;;;;4904838;29;20450;-86
2023/08/20 10:23:28;;;;;;;21.90;20.67;;;29.20;99.90;;;;;;4905023;29;20458;-86
2023/08/20 10:26:08;;;;;;;20.57;19.57;;;29.30;99.90;;;;;;4904609;29;20916;-88
2023/08/20 10:28:44;;;;;;;21.40;20.30;;;29.30;99.90;;;;;;4903657;29;20518;-87
2023/08/20 10:31:19;;;;;;;20.43;19.27;;;29.40;99.90;;;;;;4903741;29;20454;-87
2023/08/20 10:33:55;;;;;;;20.90;20.00;;;29.50;99.90;;;;;;4904743;29;20476;-86
2023/08/20 10:36:28;;;;;;;21.23;20.23;;;29.50;99.90;;;;;;4903103;29;20458;-85
2023/08/20 10:39:06;;;;;;;20.90;19.90;;;29.60;99.90;;;;;;4905501;29;20485;-87
2023/08/20 10:41:37;;;;;;;21.70;20.80;;;29.60;99.90;;;;;;4903150;29;20462;-87
2023/08/20 10:44:09;;;;;;;20.70;19.80;;;29.60;99.90;;;;;;4907817;29;20459;-84
2023/08/20 10:46:53;;;;;;;20.17;19.27;;;29.60;99.90;;;;;;4905705;29;20460;-87
2023/08/20 10:49:25;;;;;;;21.37;20.17;;;29.60;99.90;;;;;;4906599;29;21049;-86
2023/08/20 10:52:02;;;;;;;20.47;19.57;;;29.70;99.90;;;;;;4922895;29;20466;-87
2023/08/20 10:54:33;;;;;;;22.00;21.00;;;29.70;99.90;;;;;;4907786;29;20470;-86
2023/08/20 10:57:09;;;;;;;20.70;19.80;;;29.70;99.90;;;;;;4908133;29;20497;-85
2023/08/20 10:59:41;;;;;;;20.83;19.83;;;29.70;99.90;;;;;;4905219;29;20473;-86
2023/08/20 11:02:16;;;;;;;20.60;19.70;;;29.70;99.90;;;;;;4903143;29;20995;-86
2023/08/20 11:04:48;;;;;;;21.03;19.93;;;29.70;99.90;;;;;;4913800;29;20460;-85
2023/08/20 11:07:20;;;;;;;20.73;19.63;;;29.70;99.90;;;;;;4909092;29;20488;-87
2023/08/20 11:09:56;;;;;;;21.17;20.10;;;29.70;99.90;;;;;;4908139;29;20471;-86
2023/08/20 11:12:32;;;;;;;21.27;20.20;;;29.80;99.90;;;;;;4909058;29;20449;-86
2023/08/20 11:15:02;;;;;;;21.40;20.40;;;29.80;99.90;;;;;;4908576;29;20540;-87
2023/08/20 11:17:31;;;;;;;21.07;20.07;;;29.90;99.90;;;;;;4910873;29;20469;-87
2023/08/20 11:20:04;;;;;;;21.20;20.07;;;29.90;99.90;;;;;;4908980;29;20599;-88
2023/08/20 11:22:38;;;;;;;20.20;19.20;;;30.00;99.90;;;;;;4906610;29;21015;-87
2023/08/20 11:25:16;;;;;;;20.90;19.83;;;30.00;99.90;;;;;;4911248;29;20461;-88
2023/08/20 11:27:47;;;;;;;21.90;20.80;;;30.00;99.90;;;;;;4910206;29;20492;-87
2023/08/20 11:30:18;;;;;;;22.27;21.10;;;30.10;99.90;;;;;;4905946;29;20478;-86
2023/08/20 11:32:53;;;;;;;21.70;20.60;;;30.10;99.90;;;;;;4907117;29;20454;-86
2023/08/20 11:35:27;;;;;;;20.67;19.57;;;30.20;99.90;;;;;;4906020;29;20900;-86
2023/08/20 11:37:56;;;;;;;21.00;19.90;;;30.10;99.90;;;;;;4908077;29;20477;-89
2023/08/20 11:40:26;;;;;;;20.90;19.80;;;30.20;99.90;;;;;;4905510;29;20470;-87
2023/08/20 11:42:58;;;;;;;20.13;19.03;;;30.20;99.90;;;;;;4907221;29;20469;-87
2023/08/20 11:45:29;;;;;;;20.47;19.40;;;30.30;99.90;;;;;;4905986;29;20994;-90
2023/08/20 11:48:01;;;;;;;21.10;20.00;;;30.30;99.90;;;;;;4908387;29;20931;-86
2023/08/20 11:50:30;;;;;;;20.53;19.43;;;30.30;99.90;;;;;;4907967;29;20485;-87
2023/08/20 11:53:01;;;;;;;20.60;19.60;;;30.20;99.90;;;;;;4904590;29;20463;-86
2023/08/20 11:55:31;;;;;;;20.07;19.10;;;30.30;99.90;;;;;;4906647;29;20545;-86
2023/08/20 11:58:02;;;;;;;20.07;19.20;;;30.30;99.90;;;;;;4906925;29;20480;-87
2023/08/20 12:00:35;;;;;;;20.60;19.50;;;30.40;99.90;;;;;;4905853;29;21088;-86
2023/08/20 12:03:05;;;;;;;20.17;19.07;;;30.40;99.90;;;;;;4922107;29;20485;-87
2023/08/20 12:05:36;;;;;;;20.10;19.03;;;30.40;99.90;;;;;;4906680;29;20478;-88
2023/08/20 12:08:05;;;;;;;20.53;19.63;;;30.40;99.90;;;;;;4905915;29;20485;-86
2023/08/20 12:10:38;;;;;;;20.17;19.17;;;30.40;99.90;;;;;;4904245;29;20469;-87
2023/08/20 12:13:08;;;;;;;20.50;19.50;;;30.40;99.90;;;;;;4905515;29;20590;-86
2023/08/20 12:15:43;;;;;;;20.80;19.90;;;30.50;99.90;;;;;;4909857;29;20490;-86
2023/08/20 12:18:12;;;;;;;21.10;19.83;;;30.40;99.90;;;;;;4907862;29;20496;-88
2023/08/20 12:20:45;;;;;;;21.13;19.83;;;30.50;99.90;;;;;;4908235;29;20520;-86
2023/08/20 12:23:20;;;;;;;19.70;18.70;;;30.50;99.90;;;;;;4909028;29;20456;-91
2023/08/20 12:25:53;;;;;;;20.40;19.47;;;30.60;99.90;;;;;;4904326;29;20465;-87
2023/08/20 12:28:26;;;;;;;20.90;19.47;;;30.70;99.90;;;;;;4923619;28;20490;-86
2023/08/20 12:30:55;;;;;;;20.90;20.00;;;30.70;99.90;;;;;;4906996;29;20731;-86
2023/08/20 12:33:30;;;;;;;19.43;18.50;;;30.60;99.90;;;;;;4906844;29;20467;-86
2023/08/20 12:36:03;;;;;;;20.83;19.83;;;30.70;99.90;;;;;;4907743;29;20470;-87
2023/08/20 12:38:33;;;;;;;20.70;19.60;;;30.70;99.90;;;;;;4910109;29;20473;-86
2023/08/20 12:41:06;;;;;;;20.73;19.73;;;30.70;99.90;;;;;;4904930;29;20476;-86
2023/08/20 12:43:40;;;;;;;20.83;19.77;;;30.70;99.90;;;;;;4921880;29;20478;-90
2023/08/20 12:46:08;;;;;;;21.07;19.97;;;30.70;99.90;;;;;;4909558;29;20730;-86
2023/08/20 12:48:38;;;;;;;20.57;19.60;;;30.80;99.90;;;;;;4911254;29;20537;-86
2023/08/20 12:51:13;;;;;;;20.57;19.53;;;30.80;99.90;;;;;;4910662;29;20481;-86
2023/08/20 12:53:45;;;;;;;21.83;20.73;;;30.80;99.90;;;;;;4913402;29;20533;-87
2023/08/20 12:56:20;;;;;;;20.30;19.40;;;30.80;99.90;;;;;;4911662;29;20484;-86